Terminal Aerodrome Forecast
Issued by NWS

Home | Current Version | Previous Version | Text Only | Print | Product List | Glossary On
Versions: 1 2 3 4 5 6 7 8 9 10 11 12 13
631
FTUS42 TJSJ 251138
TAFJPS
TAF
TJPS 251138Z 2512/2612 11010KT P6SM VCSH FEW010 OVC020
     FM251530 16009KT P6SM VCSH SCT025 BKN040
     FM252300 11005KT P6SM VCSH SCT025 BKN060=

USA.gov is the U.S. government's official web portal to all federal, state and local government web resources and services.